»·PEaware :: ASA735 KSNA-KSFO

ASA735 :: KSNA-KSFO

FLIGHT INFORMATION

Flight Status: Arrived
Operator:
Alaska Airlines
More flights by this operator :: More flights under this callsign
Pilot: Andrew C. (28419)
Aircraft: BOEING 737-800
(B738)
More flights by this aircraft type
Origin: KSNA John Wayne-Orange Co
United States
Destination: KSFO San Francisco Intl
United States
More flights between these airports :: More routes between these airports
Route: HHERO3 IKAYE RIZIN SPLNT STOKD SERFR SERFR4
File this flight plan on PilotEdge
Remarks: RMK / SIMBRIEF
Altitude:
(Current/Filed)
36,000ft
Speed:
(Current/Filed)
458kts
Departed: 14-Sep-20 07:44 PM
Arrived: 14-Sep-20 09:03 PM
Distance/Time
Traveled:
323nm/1:18
Distance/Time
To Go:
Arrived

Flight Plot

Page will automatically refresh every two minutes.

Flight plan parsing failed; only flown route is shown


Map Options




Map Legend


Flown Route
Filed Route
Departure Airport
Arrival Airport
Navaid (VOR, NDB)
Fix

Horizontal Profiles

Position Reports

Time Latitude Longitude Heading Altitude Ground
Speed
14-Sep-20 19:34 33.675724 -117.864652 117 66ft 0kts
14-Sep-20 19:35 33.675724 -117.864652 117 66ft 0kts
14-Sep-20 19:36 33.675724 -117.864652 117 66ft 0kts
14-Sep-20 19:37 33.675746 -117.864703 118 66ft 2kts
14-Sep-20 19:38 33.675824 -117.865321 55 66ft 2kts
14-Sep-20 19:38 33.675649 -117.865495 27 66ft 0kts
14-Sep-20 19:40 33.675649 -117.865495 27 66ft 0kts
14-Sep-20 19:41 33.677535 -117.864325 26 66ft 16kts
14-Sep-20 19:41 33.680673 -117.863151 303 66ft 12kts
14-Sep-20 19:43 33.681389 -117.865216 215 66ft 3kts
14-Sep-20 19:44 33.658016 -117.879784 205 1198ft 159kts
14-Sep-20 19:44 33.611687 -117.894752 185 2380ft 260kts
14-Sep-20 19:45 33.545668 -117.927963 221 6349ft 272kts
14-Sep-20 19:46 33.491130 -117.993176 226 9884ft 288kts
14-Sep-20 19:47 33.443300 -118.082699 238 12108ft 342kts
14-Sep-20 19:48 33.422085 -118.193773 275 15108ft 357kts
14-Sep-20 19:49 33.445800 -118.310682 294 17872ft 369kts
14-Sep-20 19:50 33.492837 -118.422157 297 20337ft 380kts
14-Sep-20 19:51 33.550378 -118.530408 305 22533ft 392kts
14-Sep-20 19:52 33.616602 -118.635653 306 24547ft 401kts
14-Sep-20 19:53 33.698725 -118.726260 325 26436ft 413kts
14-Sep-20 19:54 33.800005 -118.794535 328 28111ft 422kts
14-Sep-20 19:55 33.904227 -118.860483 328 29628ft 429kts
14-Sep-20 19:56 34.010630 -118.927081 328 31204ft 431kts
14-Sep-20 19:57 34.114013 -118.996463 318 32974ft 418kts
14-Sep-20 19:58 34.188725 -119.098754 299 34532ft 403kts
14-Sep-20 19:59 34.247532 -119.212597 299 35902ft 398kts
14-Sep-20 20:00 34.306025 -119.326381 299 36026ft 394kts
14-Sep-20 20:01 34.363781 -119.439029 299 36027ft 395kts
14-Sep-20 20:02 34.428029 -119.547057 308 36027ft 399kts
14-Sep-20 20:03 34.504042 -119.645414 310 36027ft 400kts
14-Sep-20 20:04 34.581643 -119.741972 310 36027ft 400kts
14-Sep-20 20:05 34.659620 -119.838427 310 36027ft 400kts
14-Sep-20 20:06 34.737599 -119.934978 310 36026ft 401kts
14-Sep-20 20:07 34.815760 -120.031979 310 36030ft 403kts
14-Sep-20 20:08 34.894106 -120.129490 310 36058ft 405kts
14-Sep-20 20:09 34.972708 -120.227575 310 36076ft 404kts
14-Sep-20 20:10 35.051554 -120.326245 310 36082ft 405kts
14-Sep-20 20:11 35.131946 -120.422595 313 36082ft 407kts
14-Sep-20 20:12 35.215476 -120.515938 313 36082ft 408kts
14-Sep-20 20:13 35.299146 -120.609782 313 36082ft 408kts
14-Sep-20 20:14 35.382794 -120.703939 313 36081ft 408kts
14-Sep-20 20:15 35.465997 -120.797899 313 36077ft 409kts
14-Sep-20 20:16 35.555713 -120.884921 318 36073ft 412kts
14-Sep-20 20:17 35.647289 -120.970123 318 36073ft 414kts
14-Sep-20 20:18 35.738499 -121.054993 318 36073ft 407kts
14-Sep-20 20:19 35.828968 -121.139440 318 36073ft 410kts
14-Sep-20 20:20 35.921217 -121.225797 318 34127ft 422kts
14-Sep-20 20:21 36.013493 -121.312360 319 31931ft 409kts
14-Sep-20 20:22 36.103835 -121.391817 324 29926ft 399kts
14-Sep-20 20:23 36.195949 -121.464056 325 27986ft 387kts
14-Sep-20 20:24 36.285701 -121.534285 325 26108ft 376kts
14-Sep-20 20:25 36.372878 -121.602621 326 24293ft 366kts
14-Sep-20 20:26 36.457568 -121.669162 325 22532ft 356kts
14-Sep-20 20:27 36.540311 -121.734557 325 20808ft 348kts
14-Sep-20 20:28 36.620869 -121.798406 325 19129ft 341kts
14-Sep-20 20:29 36.700069 -121.861219 325 17474ft 334kts
14-Sep-20 20:30 36.783950 -121.906020 345 15880ft 330kts
14-Sep-20 20:31 36.872713 -121.931880 345 14345ft 324kts
14-Sep-20 20:32 36.959371 -121.957270 343 12861ft 318kts
14-Sep-20 20:33 37.043279 -121.987915 343 11411ft 312kts
14-Sep-20 20:34 37.126017 -122.017731 342 10143ft 301kts
14-Sep-20 20:35 37.202217 -122.047673 340 9187ft 286kts
14-Sep-20 20:36 37.276763 -122.079432 340 8020ft 282kts
14-Sep-20 20:37 37.353352 -122.110282 341 6429ft 291kts
14-Sep-20 20:38 37.430651 -122.137854 344 4987ft 288kts
14-Sep-20 20:39 37.503729 -122.161204 341 3660ft 251kts
14-Sep-20 20:40 37.547607 -122.207206 298 2577ft 175kts
14-Sep-20 20:41 37.567671 -122.254004 296 1870ft 141kts
14-Sep-20 20:42 37.586059 -122.297617 297 1076ft 132kts
14-Sep-20 20:43 37.603410 -122.338808 298 402ft 132kts
14-Sep-20 20:44 37.620761 -122.380065 298 192ft 141kts
14-Sep-20 20:45 37.640007 -122.426884 296 1909ft 185kts
14-Sep-20 20:46 37.666008 -122.495446 285 3989ft 239kts
14-Sep-20 20:47 37.680176 -122.575397 247 4013ft 234kts
14-Sep-20 20:48 37.623182 -122.585605 154 3989ft 244kts
14-Sep-20 20:49 37.563298 -122.544477 153 3987ft 244kts
14-Sep-20 20:50 37.515916 -122.486751 114 3988ft 249kts
14-Sep-20 20:51 37.490144 -122.405886 113 3985ft 249kts
14-Sep-20 20:52 37.464624 -122.325297 113 3987ft 249kts
14-Sep-20 20:53 37.439203 -122.244842 113 3984ft 248kts
14-Sep-20 20:54 37.415200 -122.168358 111 3984ft 227kts
14-Sep-20 20:55 37.445471 -122.109177 23 3054ft 220kts
14-Sep-20 20:56 37.492344 -122.107914 315 2984ft 170kts
14-Sep-20 20:57 37.523166 -122.152598 300 2983ft 168kts
14-Sep-20 20:58 37.546441 -122.203830 296 2679ft 170kts
14-Sep-20 20:59 37.568287 -122.255405 297 1786ft 166kts
14-Sep-20 21:00 37.588469 -122.303320 298 1002ft 133kts
14-Sep-20 21:01 37.606223 -122.345222 298 270ft 131kts
14-Sep-20 21:02 37.618121 -122.373631 299 19ft 30kts
14-Sep-20 21:03 37.619654 -122.379307 230 19ft 0kts
14-Sep-20 21:04 37.619654 -122.379307 230 19ft 0kts
14-Sep-20 21:05 37.618619 -122.379892 172 19ft 16kts
14-Sep-20 21:06 37.616066 -122.381484 299 19ft 7kts
14-Sep-20 21:07 37.616711 -122.381700 17 19ft 1kts
14-Sep-20 21:08 37.616763 -122.381681 16 19ft 0kts
14-Sep-20 21:09 37.616763 -122.381681 16 19ft 0kts
14-Sep-20 21:10 37.616763 -122.381681 16 19ft 0kts
14-Sep-20 21:11 37.616763 -122.381681 16 19ft 0kts

Navigation Log

Ident Type
Flight plan parsing failed, navigation log unavailable